Accueil
METAR-TAF:

METAR-TAF

Aéroports :

Aéroport international Diori Hamani

Niamey, Niger

latitude: 13-29N, longitude: 002-10E, altitude: 223 m

Observation

Le bulletin a été fait il y a 1 heure et 15 minutes, à 02:00 UTC
Vent calme
Température 24°C
Humidité 27%
Pression 1011 hPa
Visibilité: 3500 m
poussière généralisée

METAR: DRRN 190200Z 00000KT 3500 DU NSC 24/04 Q1011 NOSIG

Heure: 04:15 (03:15 UTC)

Prévision

Le bulletin a été fait il y a 4 heures et 15 minutes, à 23:00 UTC
Prévision valable du 19 à 00 UTC au 20 à 06 UTC
Vent 8 kt de ouest/nord-ouest
Visibilité: 4000 m
poussière généralisée
Temporairement
du 19 à 06 UTC au 19 à 08 UTC
Visibilité: 2500 m
Evoluant progressivement
du 19 à 10 UTC au 19 à 12 UTC
Visibilité: 6000 m

TAF: DRRN 182300Z 1900/2006 30008KT 4000 DU NSC TEMPO 1906/1908 2500 BECMG 1910/1912 6000 NSW

Observations et prévisions météorologiques de plus de 4000 aéroports (messages METAR et TAF).

Les stations disponibles sont représentées par des disques jaunes et rouges sur la carte.

Passer la souris dessus pour voir le nom de la station.

Cliquer dessus pour voir les observations et prévisions météorologiques.

Pour changer de carte: cliquez sur les boutons verts avec une croix noire pour zoomer, sur le bouton vert avec un tiret pour effectuer un zoom arrière, ou sur les flèches vertes pour les cartes adjacentes.


METAR-TAF: